Time;durP1;ratioP1;P1;durP2;ratioP2;P2;SDS_P1;SDS_P2;PMS_P1;PMS_P2;Temp;Humidity;BMP_temperature;BMP_pressure;BME280_temperature;BME280_humidity;BME280_pressure;Samples;Min_cycle;Max_cycle;Signal;HPM_P1;HPM_P2
2024/04/11 00:00:12;;;;;;;5.67;4.00;;;;;;;9.11;58.72;97667.66;5476037;26;20218;-68
2024/04/11 00:02:37;;;;;;;4.83;3.17;;;;;;;9.16;58.73;97666.72;5443915;26;20267;-67
2024/04/11 00:05:03;;;;;;;8.20;4.73;;;;;;;9.17;58.85;97673.72;5444633;26;20212;-67
2024/04/11 00:07:29;;;;;;;6.63;4.07;;;;;;;9.21;58.70;97681.47;5445902;26;20232;-67
2024/04/11 00:09:55;;;;;;;8.10;3.73;;;;;;;9.19;58.56;97677.13;5445678;26;21026;-67
2024/04/11 00:12:20;;;;;;;6.63;3.90;;;;;;;9.07;58.76;97673.88;5445449;26;20611;-68
2024/04/11 00:14:46;;;;;;;4.33;3.67;;;;;;;9.06;58.87;97671.25;5445180;26;20227;-67
2024/04/11 00:17:12;;;;;;;6.67;3.63;;;;;;;8.95;59.10;97673.19;5440610;26;20270;-68
2024/04/11 00:19:37;;;;;;;5.80;3.60;;;;;;;8.97;59.27;97667.03;5464125;26;20233;-68
2024/04/11 00:22:05;;;;;;;6.90;4.00;;;;;;;8.96;59.05;97670.56;5476322;26;20322;-69
2024/04/11 00:24:30;;;;;;;7.13;3.70;;;;;;;8.75;59.56;97669.16;5474865;26;20268;-69
2024/04/11 00:26:56;;;;;;;10.17;4.07;;;;;;;8.98;59.06;97674.03;5476303;26;20447;-69
2024/04/11 00:29:22;;;;;;;5.50;3.60;;;;;;;8.87;59.56;97670.72;5476101;26;20226;-69
2024/04/11 00:31:47;;;;;;;10.40;3.50;;;;;;;8.84;59.29;97671.63;5476076;26;20231;-69
2024/04/11 00:34:23;;;;;;;5.33;3.63;;;;;;;9.05;58.85;97665.16;5464227;26;20266;-70
2024/04/11 00:36:53;;;;;;;6.00;3.80;;;;;;;9.06;58.52;97666.88;5439474;26;21055;-69
2024/04/11 00:39:19;;;;;;;6.43;3.90;;;;;;;8.93;58.91;97669.72;5439490;26;20449;-70
2024/04/11 00:41:48;;;;;;;10.30;3.50;;;;;;;8.83;59.18;97671.66;5440028;26;20948;-69
2024/04/11 00:44:17;;;;;;;7.13;3.73;;;;;;;8.86;59.20;97669.00;5438611;26;20774;-69
2024/04/11 00:46:50;;;;;;;13.23;3.60;;;;;;;8.66;59.63;97664.06;5438680;26;20497;-70
2024/04/11 00:49:17;;;;;;;7.93;4.10;;;;;;;8.74;59.49;97663.94;5443197;26;20577;-68
2024/04/11 00:51:43;;;;;;;4.90;4.00;;;;;;;8.73;59.33;97657.84;5444009;26;20437;-69
2024/04/11 00:54:09;;;;;;;5.37;3.50;;;;;;;8.72;59.47;97660.47;5442101;26;20524;-69
2024/04/11 00:56:40;;;;;;;5.00;3.53;;;;;;;8.82;59.05;97662.09;5443752;26;20236;-69
2024/04/11 00:59:08;;;;;;;9.03;3.97;;;;;;;8.69;59.33;97657.06;5443496;26;20452;-69
2024/04/11 01:01:34;;;;;;;5.43;4.23;;;;;;;8.72;59.21;97655.25;5443524;26;20521;-70
2024/04/11 01:04:00;;;;;;;8.70;3.90;;;;;;;8.69;59.17;97651.81;5442018;26;20469;-69
2024/04/11 01:06:40;;;;;;;10.83;3.97;;;;;;;8.58;59.30;97647.66;5443429;26;20565;-70
2024/04/11 01:09:06;;;;;;;9.70;3.73;;;;;;;8.64;59.24;97642.28;5442697;26;21089;-70
2024/04/11 01:11:32;;;;;;;4.50;3.57;;;;;;;8.55;59.31;97639.81;5443148;26;20564;-69
2024/04/11 01:13:57;;;;;;;6.53;3.90;;;;;;;8.59;59.65;97639.75;5441759;26;20493;-69
2024/04/11 01:16:25;;;;;;;7.73;4.23;;;;;;;8.56;59.62;97633.72;5442658;26;20211;-69
2024/04/11 01:18:55;;;;;;;6.20;3.53;;;;;;;8.64;59.15;97627.44;5442228;26;20330;-69
2024/04/11 01:21:21;;;;;;;9.43;3.70;;;;;;;8.46;59.61;97623.41;5443479;26;20456;-69
2024/04/11 01:23:47;;;;;;;5.53;3.47;;;;;;;8.50;59.65;97626.81;5442118;26;20465;-69
2024/04/11 01:26:13;;;;;;;10.43;3.83;;;;;;;8.36;59.88;97619.19;5441161;26;20606;-69
2024/04/11 01:28:38;;;;;;;14.50;4.00;;;;;;;8.45;59.39;97615.56;5441960;26;20266;-69
2024/04/11 01:31:03;;;;;;;5.07;4.17;;;;;;;8.47;59.39;97619.88;5441193;26;21138;-69
2024/04/11 01:33:29;;;;;;;6.23;3.57;;;;;;;8.36;59.97;97611.34;5456557;26;20326;-69
2024/04/11 01:35:55;;;;;;;6.73;3.77;;;;;;;8.38;60.02;97613.91;5443147;26;20231;-69
2024/04/11 01:38:20;;;;;;;9.00;4.40;;;;;;;7.97;61.27;97612.78;5442129;26;20208;-69
2024/04/11 01:40:47;;;;;;;5.97;3.37;;;;;;;8.35;59.90;97603.50;5442565;26;20220;-69
2024/04/11 01:43:13;;;;;;;7.23;3.80;;;;;;;8.28;60.14;97600.09;5441049;26;20239;-70
2024/04/11 01:45:40;;;;;;;7.00;3.83;;;;;;;8.17;60.70;97602.91;5440572;26;20445;-69
2024/04/11 01:48:07;;;;;;;6.13;3.60;;;;;;;8.18;61.23;97599.38;5441586;26;20257;-69
2024/04/11 01:50:32;;;;;;;7.97;3.70;;;;;;;8.26;60.41;97605.34;5442778;26;20452;-70
2024/04/11 01:52:57;;;;;;;6.30;3.97;;;;;;;8.28;60.54;97602.72;5440056;26;21019;-69
2024/04/11 01:55:23;;;;;;;9.00;4.00;;;;;;;8.17;60.85;97602.91;5440294;26;20219;-70
2024/04/11 01:57:48;;;;;;;5.17;3.80;;;;;;;8.15;60.83;97609.91;5441579;26;20270;-69
2024/04/11 02:00:14;;;;;;;6.47;3.50;;;;;;;7.76;61.58;97604.34;5442298;26;20227;-70
2024/04/11 02:02:43;;;;;;;5.80;3.60;;;;;;;7.93;61.18;97608.47;5441460;26;20270;-69
2024/04/11 02:05:10;;;;;;;5.13;3.30;;;;;;;8.02;60.95;97606.59;5441299;26;20223;-69
2024/04/11 02:07:36;;;;;;;6.00;3.20;;;;;;;8.12;60.51;97609.06;5441413;26;21161;-69
2024/04/11 02:10:02;;;;;;;4.53;3.30;;;;;;;8.08;60.60;97613.50;5441782;26;20843;-69
2024/04/11 02:12:28;;;;;;;7.00;3.73;;;;;;;8.21;60.08;97620.25;5441411;26;20757;-69
2024/04/11 02:14:55;;;;;;;4.20;3.73;;;;;;;8.05;60.59;97616.13;5440740;26;20587;-69
2024/04/11 02:17:20;;;;;;;6.80;3.30;;;;;;;8.12;60.19;97616.91;5439121;26;20843;-69
2024/04/11 02:19:46;;;;;;;11.50;3.47;;;;;;;8.05;60.27;97617.03;5441621;26;20433;-69
2024/04/11 02:22:11;;;;;;;8.20;3.93;;;;;;;7.97;60.37;97624.09;5441228;26;20262;-70
2024/04/11 02:24:37;;;;;;;4.37;3.70;;;;;;;8.04;60.35;97620.50;5440391;26;20289;-69
2024/04/11 02:27:03;;;;;;;7.53;3.67;;;;;;;8.02;60.68;97619.66;5441473;26;20294;-69
2024/04/11 02:29:28;;;;;;;4.37;3.73;;;;;;;7.94;60.68;97621.53;5442094;26;20341;-69
2024/04/11 02:31:54;;;;;;;5.93;3.80;;;;;;;7.97;60.67;97624.09;5441226;26;20930;-69
2024/04/11 02:34:20;;;;;;;6.00;3.60;;;;;;;8.09;60.08;97617.81;5440497;26;20235;-69
2024/04/11 02:36:47;;;;;;;5.17;3.30;;;;;;;8.03;60.38;97621.41;5441081;26;20851;-69
2024/04/11 02:39:12;;;;;;;5.60;3.70;;;;;;;8.06;60.24;97628.34;5439507;26;20259;-70
2024/04/11 02:41:38;;;;;;;4.53;3.20;;;;;;;8.00;60.41;97620.56;5441386;26;20494;-69
2024/04/11 02:44:04;;;;;;;4.17;2.90;;;;;;;7.85;60.98;97617.28;5440815;26;20231;-70
2024/04/11 02:46:31;;;;;;;5.63;3.47;;;;;;;7.84;60.80;97625.13;5441430;26;20564;-69
2024/04/11 02:48:56;;;;;;;7.63;3.97;;;;;;;7.91;60.63;97624.16;5440529;26;20795;-69
2024/04/11 02:51:22;;;;;;;3.67;2.73;;;;;;;7.87;60.75;97625.13;5440850;26;20449;-70
2024/04/11 02:53:48;;;;;;;4.70;3.27;;;;;;;7.73;61.17;97627.91;5439545;26;20224;-68
2024/04/11 02:56:14;;;;;;;11.83;4.13;;;;;;;7.81;60.88;97628.66;5441473;26;20567;-69
2024/04/11 02:58:39;;;;;;;6.07;3.30;;;;;;;7.82;60.76;97627.78;5441081;26;20258;-70
2024/04/11 03:01:09;;;;;;;7.63;3.57;;;;;;;7.70;61.02;97625.34;5441071;26;20224;-69
2024/04/11 03:03:37;;;;;;;6.20;3.27;;;;;;;7.80;61.05;97642.63;5439266;26;20235;-68
2024/04/11 03:06:17;;;;;;;3.73;2.87;;;;;;;7.74;60.60;97629.63;5441682;26;20448;-69
2024/04/11 03:08:58;;;;;;;5.20;3.40;;;;;;;7.74;60.89;97639.22;5441123;26;20453;-70
2024/04/11 03:11:24;;;;;;;6.20;3.50;;;;;;;7.79;60.79;97638.25;5441516;26;20444;-69
2024/04/11 03:13:50;;;;;;;9.33;3.90;;;;;;;7.63;60.92;97641.97;5440469;26;20608;-70
2024/04/11 03:16:18;;;;;;;4.30;3.20;;;;;;;7.61;61.08;97633.28;5441342;26;20437;-70
2024/04/11 03:18:44;;;;;;;4.73;3.73;;;;;;;7.76;60.38;97630.47;5441140;26;20520;-69
2024/04/11 03:21:09;;;;;;;5.80;3.83;;;;;;;7.73;60.64;97627.91;5441377;26;20449;-69
2024/04/11 03:23:35;;;;;;;13.67;5.73;;;;;;;7.59;60.96;97625.47;5440052;26;20985;-69
2024/04/11 03:26:00;;;;;;;9.63;4.00;;;;;;;7.64;61.08;97625.41;5440990;26;20258;-70
2024/04/11 03:28:26;;;;;;;4.17;3.67;;;;;;;7.67;60.75;97617.53;5442806;26;20263;-70
2024/04/11 03:30:57;;;;;;;6.77;3.83;;;;;;;7.69;60.79;97615.75;5444501;26;20242;-70
2024/04/11 03:33:24;;;;;;;4.33;3.33;;;;;;;7.70;60.74;97617.50;5443955;26;20468;-69
2024/04/11 03:36:00;;;;;;;8.37;3.67;;;;;;;7.53;60.95;97617.69;5448040;26;20575;-69
2024/04/11 03:38:28;;;;;;;6.63;3.67;;;;;;;7.59;60.81;97622.00;5448023;26;20441;-70
2024/04/11 03:41:04;;;;;;;6.57;4.17;;;;;;;7.64;60.76;97620.19;5453548;26;20522;-69
2024/04/11 03:43:32;;;;;;;9.60;3.70;;;;;;;7.54;61.19;97616.81;5450780;26;20453;-70
2024/04/11 03:46:09;;;;;;;5.83;4.03;;;;;;;7.43;61.68;97631.75;5448691;26;20512;-69
2024/04/11 03:48:35;;;;;;;5.87;3.47;;;;;;;7.54;61.35;97631.63;5444432;26;20983;-69
2024/04/11 03:51:19;;;;;;;8.53;4.47;;;;;;;7.61;61.04;97635.91;5443878;26;20482;-69
2024/04/11 03:53:46;;;;;;;6.50;3.60;;;;;;;7.57;60.99;97644.66;5441825;26;20445;-70
2024/04/11 03:56:18;;;;;;;9.03;3.70;;;;;;;7.66;60.94;97649.78;5441619;26;20569;-68
2024/04/11 03:58:44;;;;;;;6.40;3.90;;;;;;;7.56;61.34;97651.63;5441599;26;20514;-69
2024/04/11 04:01:12;;;;;;;9.67;3.60;;;;;;;7.61;60.76;97646.34;5442203;26;20787;-67
2024/04/11 04:03:42;;;;;;;6.97;4.10;;;;;;;7.59;61.05;97654.19;5446041;26;20516;-69
2024/04/11 04:06:08;;;;;;;8.37;4.27;;;;;;;7.52;60.90;97656.91;5462339;26;20501;-69
2024/04/11 04:08:35;;;;;;;8.37;3.93;;;;;;;7.50;60.77;97658.66;5464708;26;20566;-69
2024/04/11 04:11:00;;;;;;;11.03;4.40;;;;;;;7.58;61.00;97662.03;5464538;26;20456;-71
2024/04/11 04:13:27;;;;;;;6.90;4.53;;;;;;;7.49;61.35;97656.91;5448629;26;21085;-69
2024/04/11 04:15:56;;;;;;;15.40;4.97;;;;;;;7.55;61.03;97662.09;5440265;26;20565;-69
2024/04/11 04:18:21;;;;;;;7.23;3.73;;;;;;;7.47;61.26;97670.00;5440063;26;20528;-69
2024/04/11 04:20:57;;;;;;;8.30;4.40;;;;;;;7.46;61.18;97667.41;5442107;26;20906;-69
2024/04/11 04:23:23;;;;;;;11.93;5.03;;;;;;;7.50;60.80;97666.50;5442999;26;20269;-69
2024/04/11 04:26:04;;;;;;;8.60;4.27;;;;;;;7.56;60.62;97669.03;5442153;26;20968;-69
2024/04/11 04:28:32;;;;;;;13.47;4.63;;;;;;;7.52;60.71;97667.34;5441643;26;20227;-69
2024/04/11 04:31:30;;;;;;;9.50;4.83;;;;;;;7.43;60.88;97663.94;5442663;26;20505;-68
2024/04/11 04:33:57;;;;;;;12.47;7.00;;;;;;;7.46;61.36;97667.41;5460464;26;20515;-67
2024/04/11 04:36:28;;;;;;;20.33;11.63;;;;;;;7.38;61.27;97665.75;5480893;26;20564;-69
2024/04/11 04:38:59;;;;;;;21.43;12.23;;;;;;;7.42;61.17;97664.84;5481702;26;20502;-69
2024/04/11 04:41:28;;;;;;;15.30;8.83;;;;;;;7.50;61.17;97676.94;5479624;26;20431;-69
2024/04/11 04:43:55;;;;;;;16.00;5.97;;;;;;;7.29;61.81;97673.69;5478072;26;20846;-69
2024/04/11 04:46:22;;;;;;;8.63;5.00;;;;;;;7.45;61.40;97676.13;5479249;26;20463;-67
2024/04/11 04:48:48;;;;;;;6.37;4.33;;;;;;;7.38;61.05;97676.19;5479076;26;20447;-68
2024/04/11 04:51:16;;;;;;;11.60;5.10;;;;;;;7.58;61.04;97685.53;5479530;26;20900;-69
2024/04/11 04:53:41;;;;;;;10.30;5.13;;;;;;;7.56;60.87;97689.91;5477715;26;20314;-71
2024/04/11 04:56:09;;;;;;;12.90;5.40;;;;;;;7.40;61.38;97690.09;5479183;26;20761;-68
2024/04/11 04:58:36;;;;;;;8.47;5.40;;;;;;;7.63;61.12;97696.84;5478450;26;20273;-69
2024/04/11 05:01:02;;;;;;;6.20;4.73;;;;;;;7.35;61.13;97691.03;5477959;26;20436;-69
2024/04/11 05:03:31;;;;;;;10.13;5.63;;;;;;;7.42;61.53;97692.72;5477138;26;20491;-70
2024/04/11 05:05:58;;;;;;;13.80;4.93;;;;;;;7.62;61.23;97690.72;5479094;26;21215;-69
2024/04/11 05:08:24;;;;;;;13.13;5.30;;;;;;;7.73;60.71;97693.22;5478912;26;20455;-70
2024/04/11 05:10:55;;;;;;;8.00;5.53;;;;;;;7.84;60.61;97691.34;5478916;26;20590;-69
2024/04/11 05:13:26;;;;;;;9.40;4.97;;;;;;;7.73;60.52;97689.75;5477800;26;20594;-69
2024/04/11 05:15:58;;;;;;;14.27;4.53;;;;;;;7.83;60.13;97697.44;5480141;26;20605;-69
2024/04/11 05:18:24;;;;;;;7.93;4.57;;;;;;;7.88;60.18;97697.41;5480426;26;20495;-69
2024/04/11 05:20:51;;;;;;;9.23;4.93;;;;;;;7.96;60.28;97692.94;5479206;26;20451;-69
2024/04/11 05:23:17;;;;;;;16.77;5.63;;;;;;;8.08;59.77;97694.53;5477992;26;20260;-69
2024/04/11 05:25:43;;;;;;;20.07;5.97;;;;;;;8.23;59.54;97699.56;5479126;26;20987;-70
2024/04/11 05:28:09;;;;;;;9.43;4.90;;;;;;;8.38;59.17;97693.22;5481823;26;20812;-70
2024/04/11 05:30:40;;;;;;;12.47;4.47;;;;;;;8.48;58.80;97696.63;5478504;26;20595;-69
2024/04/11 05:33:08;;;;;;;11.60;5.50;;;;;;;8.88;57.71;97702.13;5475987;26;20577;-70
2024/04/11 05:35:34;;;;;;;16.77;5.47;;;;;;;9.19;56.73;97696.34;5479362;26;20509;-70
2024/04/11 05:38:00;;;;;;;14.80;6.33;;;;;;;9.53;55.40;97699.22;5478774;26;20521;-69
2024/04/11 05:40:25;;;;;;;19.13;5.50;;;;;;;9.67;55.08;97698.09;5478681;26;20447;-70
2024/04/11 05:42:50;;;;;;;8.07;5.10;;;;;;;9.99;54.37;97697.44;5477625;26;20234;-70
2024/04/11 05:45:18;;;;;;;15.37;5.30;;;;;;;10.47;53.29;97704.31;5477972;26;20257;-70
2024/04/11 05:47:44;;;;;;;11.77;4.87;;;;;;;10.74;52.39;97701.03;5478337;26;20934;-70
2024/04/11 05:50:10;;;;;;;11.60;6.07;;;;;;;10.91;51.72;97705.88;5478878;26;20502;-69
2024/04/11 05:52:36;;;;;;;5.27;4.40;;;;;;;11.06;51.40;97703.81;5478247;26;20269;-69
2024/04/11 05:55:04;;;;;;;11.00;6.80;;;;;;;11.64;50.27;97695.25;5477532;26;20811;-70
2024/04/11 05:57:30;;;;;;;8.23;5.53;;;;;;;11.69;49.80;97702.16;5478225;26;20257;-69
2024/04/11 05:59:55;;;;;;;10.43;5.93;;;;;;;11.57;50.51;97700.72;5478479;26;20463;-69
2024/04/11 06:02:24;;;;;;;5.93;4.60;;;;;;;11.32;50.77;97701.38;5478090;26;20214;-68
2024/04/11 06:04:52;;;;;;;11.63;5.47;;;;;;;10.91;51.27;97705.88;5477259;26;20285;-68
2024/04/11 06:07:18;;;;;;;7.73;5.83;;;;;;;11.39;50.57;97713.44;5478390;26;20435;-69
2024/04/11 06:09:43;;;;;;;8.77;5.53;;;;;;;11.21;51.10;97708.66;5478866;26;21108;-69
2024/04/11 06:12:10;;;;;;;6.70;5.77;;;;;;;11.20;51.26;97712.22;5477934;26;20214;-70
2024/04/11 06:14:36;;;;;;;7.10;5.70;;;;;;;11.29;51.77;97711.97;5477061;26;20234;-70
2024/04/11 06:17:01;;;;;;;7.63;4.53;;;;;;;11.68;50.29;97714.44;5478064;26;20507;-69
2024/04/11 06:19:27;;;;;;;14.60;6.20;;;;;;;11.60;50.37;97722.53;5479105;26;20752;-69
2024/04/11 06:21:57;;;;;;;9.10;6.50;;;;;;;11.09;51.57;97720.34;5478145;26;20222;-69
2024/04/11 06:24:22;;;;;;;14.33;6.73;;;;;;;11.52;51.17;97719.25;5477007;26;20234;-70
2024/04/11 06:26:48;;;;;;;13.67;5.70;;;;;;;12.04;49.59;97724.88;5478054;26;20452;-70
2024/04/11 06:29:19;;;;;;;16.57;6.80;;;;;;;12.12;49.68;97728.16;5478732;26;20929;-69
2024/04/11 06:31:46;;;;;;;15.10;6.90;;;;;;;12.33;49.03;97726.66;5478231;26;20214;-69
2024/04/11 06:34:13;;;;;;;14.27;5.80;;;;;;;13.01;47.90;97722.78;5468663;26;20552;-69
2024/04/11 06:36:39;;;;;;;13.73;6.23;;;;;;;12.59;48.27;97730.25;5444936;26;20445;-70
2024/04/11 06:39:09;;;;;;;6.70;5.40;;;;;;;12.62;47.66;97738.09;5446271;26;20453;-69
2024/04/11 06:41:36;;;;;;;6.80;5.80;;;;;;;12.04;49.17;97733.63;5447912;26;20823;-70
2024/04/11 06:44:01;;;;;;;8.17;6.03;;;;;;;12.41;48.19;97731.69;5441625;26;20766;-69
2024/04/11 06:46:27;;;;;;;13.93;7.40;;;;;;;12.92;47.27;97728.34;5442448;26;20496;-68
2024/04/11 06:48:57;;;;;;;9.93;6.90;;;;;;;12.31;48.82;97730.22;5441011;26;20305;-66
2024/04/11 06:51:22;;;;;;;22.47;7.13;;;;;;;13.37;46.96;97727.81;5440507;26;20956;-70
2024/04/11 06:53:48;;;;;;;10.13;6.37;;;;;;;13.30;46.87;97734.19;5455197;26;20515;-70
2024/04/11 06:56:17;;;;;;;15.60;7.47;;;;;;;13.84;45.88;97722.66;5468552;26;20784;-70
2024/04/11 06:58:45;;;;;;;17.57;6.30;;;;;;;14.07;45.03;97721.81;5483863;26;20569;-71
2024/04/11 07:01:15;;;;;;;7.93;6.63;;;;;;;14.79;44.08;97721.72;5481243;26;20459;-70
2024/04/11 07:03:43;;;;;;;12.80;6.60;;;;;;;14.71;44.14;97718.53;5485078;26;20509;-70
2024/04/11 07:06:16;;;;;;;8.70;5.90;;;;;;;14.72;44.25;97720.25;5457931;26;20460;-71
2024/04/11 07:08:43;;;;;;;8.50;6.63;;;;;;;14.58;44.06;97725.22;5480435;26;21105;-70
2024/04/11 07:11:27;;;;;;;14.97;6.43;;;;;;;14.71;43.62;97722.94;5487136;26;20492;-71
2024/04/11 07:13:57;;;;;;;11.27;5.60;;;;;;;14.90;43.67;97720.44;5485171;26;20850;-69
2024/04/11 07:16:26;;;;;;;8.60;6.30;;;;;;;15.20;43.29;97720.97;5468934;26;20558;-71
2024/04/11 07:18:55;;;;;;;9.43;5.60;;;;;;;15.17;42.50;97721.97;5449863;26;20534;-70
2024/04/11 07:21:25;;;;;;;8.03;5.17;;;;;;;14.55;44.00;97733.25;5473585;26;20856;-71
2024/04/11 07:23:55;;;;;;;9.17;6.00;;;;;;;14.91;43.30;97730.97;5440128;26;20472;-70
2024/04/11 07:26:22;;;;;;;11.17;5.70;;;;;;;14.23;44.67;97730.03;5441860;26;20457;-70
2024/04/11 07:28:48;;;;;;;8.40;5.80;;;;;;;13.78;45.70;97730.78;5441440;26;20456;-70
2024/04/11 07:31:17;;;;;;;7.43;5.40;;;;;;;13.68;46.04;97734.66;5452318;26;20503;-70
2024/04/11 07:33:43;;;;;;;15.70;7.17;;;;;;;13.45;46.22;97738.94;5475324;26;20541;-70
2024/04/11 07:36:10;;;;;;;9.00;5.50;;;;;;;13.74;45.85;97740.56;5470157;26;20999;-70
2024/04/11 07:38:38;;;;;;;15.93;6.80;;;;;;;14.53;44.37;97737.72;5471600;26;20475;-67
2024/04/11 07:41:16;;;;;;;9.40;5.90;;;;;;;15.23;43.51;97734.91;5476535;26;20451;-66
2024/04/11 07:43:52;;;;;;;10.30;5.00;;;;;;;15.60;42.20;97743.13;5475210;26;20459;-67
2024/04/11 07:46:18;;;;;;;8.30;5.80;;;;;;;15.74;41.60;97745.22;5475872;26;20830;-67
2024/04/11 07:48:47;;;;;;;9.00;5.33;;;;;;;15.08;43.21;97748.78;5469789;26;20455;-68
2024/04/11 07:51:16;;;;;;;10.70;7.17;;;;;;;14.82;44.13;97747.19;5457043;26;21399;-67
2024/04/11 07:53:43;;;;;;;10.43;7.20;;;;;;;15.17;43.11;97743.13;5473088;26;20531;-67
2024/04/11 07:56:09;;;;;;;9.17;4.50;;;;;;;14.96;43.32;97752.78;5464872;26;21169;-68
2024/04/11 07:58:35;;;;;;;5.83;5.03;;;;;;;15.04;42.99;97755.09;5476420;26;20508;-68
2024/04/11 08:01:02;;;;;;;6.07;5.27;;;;;;;14.50;44.09;97767.72;5472195;26;20238;-67
2024/04/11 08:03:27;;;;;;;7.00;5.07;;;;;;;14.55;45.07;97759.66;5474192;26;20459;-67
2024/04/11 08:05:53;;;;;;;6.60;4.30;;;;;;;14.59;44.28;97754.19;5468993;26;20626;-68
2024/04/11 08:08:20;;;;;;;5.43;4.93;;;;;;;15.02;43.57;97754.31;5468111;26;20265;-66
2024/04/11 08:10:49;;;;;;;14.83;5.47;;;;;;;15.11;42.87;97761.00;5473432;26;20230;-67
2024/04/11 08:13:18;;;;;;;9.60;5.20;;;;;;;15.15;42.56;97760.84;5475180;26;21006;-66
2024/04/11 08:15:44;;;;;;;6.67;4.53;;;;;;;14.73;43.92;97763.38;5475594;26;20962;-67
2024/04/11 08:18:09;;;;;;;8.50;6.40;;;;;;;14.77;42.54;97768.50;5475528;26;20494;-66
2024/04/11 08:20:35;;;;;;;20.70;6.03;;;;;;;14.98;42.56;97758.88;5465089;26;20279;-66
2024/04/11 08:23:01;;;;;;;7.23;5.00;;;;;;;15.23;41.05;97766.66;5485465;26;20560;-70
2024/04/11 08:25:26;;;;;;;6.17;5.07;;;;;;;14.38;42.93;97776.97;5476860;26;20215;-67
2024/04/11 08:27:54;;;;;;;5.80;5.00;;;;;;;14.44;42.81;97773.25;5464832;26;20511;-67
2024/04/11 08:30:20;;;;;;;7.27;5.60;;;;;;;14.40;42.93;97785.69;5474397;26;20261;-67
2024/04/11 08:32:48;;;;;;;9.30;5.70;;;;;;;15.04;42.47;97778.91;5475976;26;20451;-66
2024/04/11 08:35:19;;;;;;;6.60;6.00;;;;;;;15.62;41.22;97770.38;5451691;26;20235;-68
2024/04/11 08:37:46;;;;;;;5.73;5.13;;;;;;;15.08;42.46;97785.78;5459683;26;21092;-68
2024/04/11 08:40:12;;;;;;;9.73;6.73;;;;;;;14.67;43.57;97783.00;5475341;26;20510;-67
2024/04/11 08:42:38;;;;;;;11.03;7.10;;;;;;;14.90;43.40;97782.09;5467947;26;20827;-67
2024/04/11 08:45:06;;;;;;;7.37;6.10;;;;;;;15.25;41.63;97782.47;5462410;26;20614;-67
2024/04/11 08:47:32;;;;;;;10.80;6.20;;;;;;;15.69;41.81;97794.81;5474546;26;20844;-66
2024/04/11 08:49:58;;;;;;;22.27;7.70;;;;;;;15.23;43.55;97787.81;5463116;26;21065;-67
2024/04/11 08:52:26;;;;;;;25.07;7.50;;;;;;;15.82;42.67;97791.59;5465005;26;20509;-67
2024/04/11 08:54:52;;;;;;;7.13;5.77;;;;;;;16.16;41.39;97786.59;5456275;26;20706;-67
2024/04/11 08:57:18;;;;;;;11.83;5.50;;;;;;;15.99;41.00;97785.59;5476018;26;20467;-66
2024/04/11 08:59:45;;;;;;;14.20;6.30;;;;;;;16.49;40.38;97785.13;5476729;26;20436;-67
2024/04/11 09:02:11;;;;;;;6.57;5.97;;;;;;;16.37;39.35;97783.03;5475235;26;21011;-67
2024/04/11 09:04:37;;;;;;;6.83;5.67;;;;;;;16.34;39.66;97777.00;5466155;26;20505;-67
2024/04/11 09:07:04;;;;;;;12.03;5.80;;;;;;;16.01;41.17;97788.16;5474670;26;20226;-67
2024/04/11 09:09:30;;;;;;;8.07;6.80;;;;;;;16.23;39.91;97775.69;5480008;26;20651;-67
2024/04/11 09:11:56;;;;;;;7.30;6.60;;;;;;;16.83;38.67;97772.97;5479381;26;21047;-66
2024/04/11 09:14:22;;;;;;;9.70;7.40;;;;;;;16.38;39.00;97774.13;5476392;26;20468;-67
2024/04/11 09:17:04;;;;;;;11.37;7.07;;;;;;;15.92;40.33;97780.59;5479134;26;20272;-65
2024/04/11 09:19:39;;;;;;;7.17;6.47;;;;;;;15.87;41.00;97784.31;5466040;26;20469;-67
2024/04/11 09:22:09;;;;;;;7.57;6.47;;;;;;;15.93;41.34;97784.97;5479199;26;20499;-67
2024/04/11 09:24:35;;;;;;;12.60;6.67;;;;;;;15.91;40.13;97781.53;5477868;26;20503;-67
2024/04/11 09:27:05;;;;;;;7.40;6.50;;;;;;;15.79;40.28;97783.78;5479234;26;21014;-67
2024/04/11 09:29:32;;;;;;;7.23;6.20;;;;;;;15.84;40.83;97787.09;5480378;26;20486;-67
2024/04/11 09:31:59;;;;;;;10.03;6.27;;;;;;;15.90;39.82;97790.38;5477417;26;20489;-66
2024/04/11 09:34:29;;;;;;;7.97;7.27;;;;;;;15.75;39.98;97787.47;5473168;26;20463;-67
2024/04/11 09:36:59;;;;;;;17.87;6.80;;;;;;;15.98;41.01;97788.28;5468461;26;20521;-67
2024/04/11 09:39:46;;;;;;;9.00;6.70;;;;;;;16.06;39.83;97788.78;5480448;26;20452;-67
2024/04/11 09:42:19;;;;;;;8.60;7.50;;;;;;;15.39;40.85;97784.56;5480414;26;20443;-67
2024/04/11 09:44:50;;;;;;;9.33;5.77;;;;;;;16.25;39.22;97781.78;5480101;26;20516;-66
2024/04/11 09:47:31;;;;;;;19.70;7.63;;;;;;;15.90;39.57;97793.91;5487783;26;20513;-66
2024/04/11 09:50:00;;;;;;;10.10;5.33;;;;;;;15.59;39.72;97779.31;5492670;26;20990;-68
2024/04/11 09:52:41;;;;;;;9.70;5.10;;;;;;;15.75;39.91;97784.81;5500837;26;20506;-68
2024/04/11 09:55:10;;;;;;;6.00;4.80;;;;;;;15.49;39.73;97777.09;5465645;26;20469;-67
2024/04/11 09:57:38;;;;;;;9.73;4.23;;;;;;;16.36;38.49;97772.50;5461987;26;20456;-67
2024/04/11 10:00:18;;;;;;;5.50;4.70;;;;;;;16.42;36.67;97783.69;5479314;26;20467;-67
2024/04/11 10:02:45;;;;;;;6.70;4.30;;;;;;;16.42;36.48;97780.16;5477895;26;20595;-67
2024/04/11 10:05:16;;;;;;;8.63;4.80;;;;;;;16.12;36.50;97785.03;5478934;26;20510;-67
2024/04/11 10:07:41;;;;;;;5.10;4.10;;;;;;;16.49;36.00;97784.25;5472941;26;20480;-67
2024/04/11 10:10:20;;;;;;;6.93;3.97;;;;;;;16.73;35.84;97780.47;5477545;26;20507;-67
2024/04/11 10:12:48;;;;;;;9.67;4.00;;;;;;;16.24;35.70;97780.06;5478609;26;20234;-66
2024/04/11 10:15:18;;;;;;;4.07;3.27;;;;;;;16.44;36.36;97786.22;5475173;26;20439;-67
2024/04/11 10:18:18;;;;;;;6.63;2.50;;;;;;;16.18;36.09;97782.09;5477396;26;20464;-68
2024/04/11 10:21:01;;;;;;;3.80;3.17;;;;;;;17.30;34.47;97761.88;5464092;26;20536;-68
2024/04/11 10:23:32;;;;;;;6.27;3.60;;;;;;;16.74;35.63;97781.31;5482259;26;20448;-67
2024/04/11 10:25:59;;;;;;;4.10;3.70;;;;;;;15.43;37.92;97779.06;5483426;26;20444;-68
2024/04/11 10:28:37;;;;;;;6.77;4.50;;;;;;;16.38;36.60;97776.78;5484092;26;21003;-67
2024/04/11 10:31:08;;;;;;;5.67;4.07;;;;;;;15.86;37.69;97794.97;5482617;26;21013;-68
2024/04/11 10:33:44;;;;;;;4.90;4.37;;;;;;;16.09;38.19;97786.91;5481117;26;20522;-66
2024/04/11 10:36:13;;;;;;;6.23;5.60;;;;;;;16.14;37.52;97783.19;5469281;26;20451;-68
2024/04/11 10:38:41;;;;;;;7.03;4.37;;;;;;;16.83;36.80;97770.31;5476163;26;20545;-69
2024/04/11 10:41:08;;;;;;;5.47;3.70;;;;;;;16.71;36.65;97778.81;5465652;26;20572;-67
2024/04/11 10:43:36;;;;;;;6.10;4.40;;;;;;;16.42;36.65;97777.53;5471274;26;20872;-67
2024/04/11 10:46:05;;;;;;;6.70;4.20;;;;;;;16.07;38.08;97775.50;5479949;26;20444;-67
2024/04/11 10:48:31;;;;;;;5.30;4.47;;;;;;;16.80;36.72;97769.63;5469878;26;20510;-68
2024/04/11 10:51:00;;;;;;;4.60;4.20;;;;;;;17.26;35.86;97765.59;5476476;26;20452;-67
2024/04/11 10:53:25;;;;;;;7.40;3.80;;;;;;;16.58;36.58;97773.22;5477047;26;21513;-67
2024/04/11 10:55:55;;;;;;;10.63;4.60;;;;;;;16.94;36.54;97769.81;5478387;26;20451;-66
2024/04/11 10:58:28;;;;;;;7.67;4.57;;;;;;;16.65;37.02;97763.19;5478306;26;20694;-68
2024/04/11 11:06:24;;;;;;;5.33;4.80;;;;;;;17.58;36.32;97763.16;5453180;26;20471;-68
2024/04/11 11:08:54;;;;;;;7.30;4.60;;;;;;;16.98;36.58;97752.81;5449880;26;20591;-67
2024/04/11 11:11:21;;;;;;;7.77;4.80;;;;;;;17.93;35.41;97755.22;5477492;26;20818;-67
2024/04/11 11:13:47;;;;;;;10.57;5.00;;;;;;;18.46;34.23;97748.84;5476419;26;20506;-67
2024/04/11 11:16:21;;;;;;;18.83;5.10;;;;;;;17.34;34.94;97762.59;5477937;26;20526;-68
2024/04/11 11:18:47;;;;;;;8.70;5.30;;;;;;;17.39;35.17;97765.88;5477220;26;20593;-67
2024/04/11 11:21:16;;;;;;;5.60;3.80;;;;;;;17.42;34.79;97768.38;5475467;26;21050;-67
2024/04/11 11:23:45;;;;;;;5.33;4.00;;;;;;;16.94;35.61;97764.53;5462810;26;20583;-67
2024/04/11 11:26:11;;;;;;;7.50;4.73;;;;;;;16.49;36.76;97771.00;5474912;26;20515;-68
2024/04/11 11:28:38;;;;;;;4.43;3.63;;;;;;;16.59;36.82;97771.44;5455131;26;21033;-67
2024/04/11 11:31:04;;;;;;;9.50;3.93;;;;;;;17.00;36.29;97760.72;5439178;26;20468;-68
2024/04/11 11:33:30;;;;;;;5.33;3.17;;;;;;;17.70;35.42;97765.19;5438510;26;20473;-68
2024/04/11 11:35:56;;;;;;;5.70;4.80;;;;;;;18.06;34.51;97750.97;5444658;26;20235;-66
2024/04/11 11:38:22;;;;;;;7.50;4.20;;;;;;;18.18;34.56;97752.97;5476480;26;20507;-67
2024/04/11 11:40:53;;;;;;;6.10;4.00;;;;;;;18.36;34.45;97745.84;5477324;26;20728;-67
2024/04/11 11:43:20;;;;;;;4.80;4.40;;;;;;;17.42;35.25;97749.78;5477359;26;20476;-65